New Castle Airport
KILG : now visible

Airfield :











YOU CAN JOIN US ON...

 
LOGIN :

Register | Disclaimer

   EN    FR    IT 

 









Legend :    VFR   Marginal VFR   IFR   Intensive IFR   Very Intensive IFR
Visi :
Ceiling :
>= 8 km
>= 3000ft
5 to 8 km
1000 to 3000 ft
1500m to 5 km
500 to 1000 ft
800 to 1500m
200 to 500 ft
< 800m
< 200 ft
Symbols :   Thunderstorms  Fog  Heavy snow  Heavy precipitations  Wind > 20 kt






- Airport Elevation : 80 ft
- IATA code : ILG


KILG - New Castle

CURRENT METAR :
  • 200851Z AUTO 20003KT 7SM CLR 08/07 A2993 RMK AO2 SLP133 T00830067 56001 $

EXPIRED METARs :
  • 200751Z AUTO 00000KT 8SM CLR 08/07 A2993 RMK AO2 SLP133 T00830072 $
  • 200651Z AUTO 00000KT 7SM CLR 08/07 A2992 RMK AO2 SLP133 T00830072 $

TAF KILG
Valid from the 20 at 06:00 until the 21 at 06:00 UTC


200520Z 2006/2106 VRB04KT P6SM SKC
FM201400 23010KT P6SM FEW060
FM201700 23010G18KT P6SM SCT060
FM202300 17010KT P6SM SCT080
KZDC FIR / North America



MET'MAP, your aeronautical weather chart ! - Copyright ORBIFLY December 2007 - Disclaimer

ORBIFLY MET'MAP TEAM :

Programming & Development : Alexandra Zaïnal
Concept & original design : Baudouin d'Aumeries
Assistance for programming : Marc-Olivier Méhu
Technical & hardware support : Manuel Goepfert

Contact : metmap@orbifly.com




SOURCES & CREDITS :

   NOAA       Earth
Advisory